Time;durP1;ratioP1;P1;durP2;ratioP2;P2;SDS_P1;SDS_P2;PMS_P1;PMS_P2;Temp;Humidity;BMP_temperature;BMP_pressure;BME280_temperature;BME280_humidity;BME280_pressure;Samples;Min_cycle;Max_cycle;Signal;HPM_P1;HPM_P2
2022/01/20 07:29:26;;;;;;;;;15.25;12.00;;;;;2.46;80.37;103033.13;5064922;27;50124;-79
2022/01/20 07:31:52;;;;;;;;;11.25;11.25;;;;;2.69;80.29;103034.25;5067543;27;50172;-88
2022/01/20 07:34:18;;;;;;;;;20.50;14.50;;;;;2.76;79.72;102997.72;5057626;27;49985;-74
2022/01/20 07:36:44;;;;;;;;;11.50;10.50;;;;;3.01;79.59;103013.75;5051534;28;49853;-74
2022/01/20 07:39:09;;;;;;;;;15.75;13.75;;;;;3.32;79.04;103048.47;5055375;28;49896;-76
2022/01/20 07:41:34;;;;;;;;;16.75;13.25;;;;;3.39;79.20;103024.84;5065554;28;50252;-67
2022/01/20 07:43:59;;;;;;;;;10.00;10.00;;;;;3.58;79.21;103020.47;5065313;27;49930;-70
2022/01/20 07:46:25;;;;;;;;;11.50;11.00;;;;;3.69;78.62;103029.16;5050599;28;50707;-67
2022/01/20 07:48:50;;;;;;;;;12.25;10.25;;;;;3.86;77.49;103035.75;5047143;28;49733;-66
2022/01/20 07:51:17;;;;;;;;;13.00;13.00;;;;;4.06;78.38;103042.63;5051905;28;49866;-71
2022/01/20 07:53:42;;;;;;;;;10.50;8.25;;;;;4.12;77.23;103035.31;5046988;28;49590;-69
2022/01/20 07:56:08;;;;;;;;;8.75;8.75;;;;;4.25;76.95;103040.78;5047312;28;49903;-68
2022/01/20 07:58:34;;;;;;;;;17.00;11.25;;;;;4.28;75.81;103021.13;5046809;28;49679;-69
2022/01/20 08:01:00;;;;;;;;;15.75;10.75;;;;;4.54;75.25;103038.88;5065204;28;49897;-71
2022/01/20 08:03:25;;;;;;;;;11.75;9.50;;;;;4.51;76.01;103019.47;5066724;27;49588;-70
2022/01/20 08:05:50;;;;;;;;;22.50;14.75;;;;;4.56;75.40;103016.47;5060606;27;50580;-72
2022/01/20 08:08:16;;;;;;;;;22.50;13.25;;;;;4.80;75.25;103056.56;5049589;27;49763;-69
2022/01/20 08:10:41;;;;;;;;;13.00;13.00;;;;;4.85;75.58;103043.94;5049370;28;49869;-68
2022/01/20 08:13:07;;;;;;;;;7.50;5.75;;;;;4.90;75.09;103034.78;5055249;28;50312;-92
2022/01/20 08:15:32;;;;;;;;;13.00;10.00;;;;;4.89;73.80;103032.97;5046492;28;49865;-68
2022/01/20 08:17:58;;;;;;;;;10.50;8.75;;;;;4.53;73.34;102968.47;5046210;28;49871;-76
2022/01/20 08:20:24;;;;;;;;;13.00;10.50;;;;;5.05;72.95;103054.25;5044820;28;50088;-65
2022/01/20 08:22:49;;;;;;;;;11.75;8.75;;;;;5.03;73.15;103039.28;5045984;28;49940;-68
2022/01/20 08:25:17;;;;;;;;;9.00;9.00;;;;;5.04;73.22;103041.09;5045729;28;50853;-76
2022/01/20 08:27:45;;;;;;;;;17.25;9.25;;;;;5.13;72.75;103049.66;5054833;27;49656;-80
2022/01/20 08:30:13;;;;;;;;;14.00;14.00;;;;;5.05;72.49;103033.41;5066160;27;49742;-71
2022/01/20 08:32:39;;;;;;;;;9.50;9.50;;;;;5.22;72.33;103052.06;5066351;27;50027;-75
2022/01/20 08:35:08;;;;;;;;;12.25;9.00;;;;;5.25;73.09;103050.59;5065085;27;50744;-68
2022/01/20 08:37:34;;;;;;;;;9.25;6.00;;;;;5.32;71.35;103057.22;5064554;27;49797;-76
2022/01/20 08:40:04;;;;;;;;;15.75;12.75;;;;;5.34;72.17;103045.22;5053766;27;50100;-71
2022/01/20 08:42:30;;;;;;;;;1.00;0.00;;;;;5.40;71.79;103056.09;5051168;28;49624;-74
2022/01/20 08:44:55;;;;;;;;;16.25;13.00;;;;;5.35;71.11;103060.97;5052758;28;49873;-68
2022/01/20 08:47:21;;;;;;;;;15.75;12.50;;;;;5.37;71.60;103046.34;5052817;28;49870;-69
2022/01/20 08:49:48;;;;;;;;;20.00;18.75;;;;;5.57;71.92;103060.03;5052733;28;49915;-68
2022/01/20 08:52:15;;;;;;;;;22.50;22.50;;;;;5.55;70.41;103054.69;5050896;28;50138;-72
2022/01/20 08:54:41;;;;;;;;;21.25;18.00;;;;;5.67;72.22;103053.03;5052577;28;51040;-76
2022/01/20 08:57:06;;;;;;;;;29.50;18.00;;;;;5.79;71.73;103059.97;5052774;28;49625;-66
2022/01/20 08:59:31;;;;;;;;;20.00;19.25;;;;;5.78;70.64;103039.91;5052709;28;49920;-65
2022/01/20 09:01:57;;;;;;;;;25.75;19.50;;;;;5.87;71.35;103056.25;5052615;28;49692;-65
2022/01/20 09:04:22;;;;;;;;;24.00;23.00;;;;;5.91;71.12;103047.94;5052499;28;50906;-65
2022/01/20 09:06:48;;;;;;;;;25.00;20.25;;;;;5.98;70.90;103050.19;5052474;28;49972;-65
2022/01/20 09:09:16;;;;;;;;;19.25;19.25;;;;;6.05;70.64;103060.28;5071904;28;49877;-72
2022/01/20 09:11:51;;;;;;;;;25.50;21.25;;;;;6.12;70.50;103059.97;5054174;28;49240;-70
2022/01/20 09:17:00;;;;;;;;;18.75;16.00;;;;;6.25;70.07;103060.09;5058610;28;49712;-73
2022/01/20 09:19:26;;;;;;;;;15.75;13.25;;;;;6.30;70.42;103063.06;5052395;28;49594;-69
2022/01/20 09:21:51;;;;;;;;;20.25;18.50;;;;;6.30;70.80;103058.75;5053124;28;49843;-73
2022/01/20 09:24:16;;;;;;;;;14.75;14.25;;;;;6.29;70.07;103066.47;5052263;28;49724;-65
2022/01/20 09:26:42;;;;;;;;;19.50;17.50;;;;;6.45;70.00;103084.16;5059913;28;49772;-75
2022/01/20 09:29:07;;;;;;;;;17.75;17.00;;;;;6.21;69.09;103041.50;5072701;28;49907;-67
2022/01/20 09:31:37;;;;;;;;;28.00;21.50;;;;;6.49;70.28;103083.59;5071904;28;49880;-74
2022/01/20 09:34:03;;;;;;;;;22.50;18.75;;;;;6.58;69.88;103094.72;5071388;28;51277;-63
2022/01/20 09:36:28;;;;;;;;;26.00;20.50;;;;;6.63;69.49;103100.25;5071382;28;49811;-63
2022/01/20 09:38:54;;;;;;;;;22.75;20.75;;;;;6.65;69.21;103102.19;5077310;28;50001;-68
2022/01/20 09:41:19;;;;;;;;;24.50;21.25;;;;;6.72;69.66;103119.22;5071849;28;49825;-70
2022/01/20 09:43:44;;;;;;;;;22.50;17.75;;;;;6.73;70.09;103101.03;5071137;28;49805;-63
2022/01/20 09:46:10;;;;;;;;;23.50;19.50;;;;;6.76;69.82;103087.34;5071464;28;49832;-63
2022/01/20 09:48:35;;;;;;;;;22.25;20.75;;;;;6.82;70.22;103082.53;5073015;28;49673;-63
2022/01/20 09:51:01;;;;;;;;;20.00;16.50;;;;;6.94;70.03;103088.66;5070580;28;49745;-65
2022/01/20 09:53:28;;;;;;;;;22.00;21.00;;;;;6.83;69.85;103051.31;5071671;28;49879;-64
2022/01/20 09:55:53;;;;;;;;;20.50;19.00;;;;;7.07;68.92;103086.16;5060134;28;49764;-70
2022/01/20 09:58:19;;;;;;;;;31.00;20.50;;;;;7.14;69.44;103087.47;5051677;28;49744;-70
2022/01/20 10:00:46;;;;;;;;;24.75;13.75;;;;;7.08;68.90;103066.16;5051890;28;49554;-64
2022/01/20 10:03:15;;;;;;;;;23.25;20.50;;;;;7.10;69.64;103083.75;5051143;28;49802;-75
2022/01/20 10:05:51;;;;;;;;;27.00;20.00;;;;;7.19;68.97;103091.34;5051850;28;49811;-78
2022/01/20 10:08:26;;;;;;;;;21.00;19.00;;;;;7.29;68.32;103095.50;5049716;28;49708;-71
2022/01/20 10:11:01;;;;;;;;;24.00;19.50;;;;;7.37;69.17;103113.56;5051815;28;50049;-69
2022/01/20 10:13:30;;;;;;;;;23.00;20.00;;;;;7.30;69.02;103082.53;5050926;28;49971;-66
2022/01/20 10:16:10;;;;;;;;;21.00;15.75;;;;;7.41;68.26;103093.75;5051367;28;49686;-70
2022/01/20 10:18:51;;;;;;;;;24.00;22.25;;;;;7.56;68.26;103122.69;5049865;28;50213;-65
2022/01/20 10:21:25;;;;;;;;;20.25;18.75;;;;;7.55;69.01;103111.34;5051567;28;49847;-74
2022/01/20 10:23:51;;;;;;;;;28.25;22.25;;;;;7.60;67.99;103125.63;5050989;28;49891;-67
2022/01/20 10:26:22;;;;;;;;;21.25;17.75;;;;;7.62;68.24;103136.19;5049472;28;49813;-72
2022/01/20 10:28:53;;;;;;;;;28.50;25.00;;;;;7.68;68.56;103140.13;5050248;28;49850;-69
2022/01/20 10:31:33;;;;;;;;;24.75;23.25;;;;;7.66;68.21;103136.50;5051566;28;49948;-68
2022/01/20 10:33:59;;;;;;;;;22.25;19.00;;;;;7.56;67.72;103112.25;5046745;28;50746;-68
2022/01/20 10:36:25;;;;;;;;;21.25;19.75;;;;;7.73;69.07;103144.00;5051136;28;50011;-65
2022/01/20 10:38:51;;;;;;;;;24.25;20.75;;;;;7.52;68.83;103095.41;5051020;28;49915;-62
2022/01/20 10:41:56;;;;;;;;;23.50;20.25;;;;;7.86;67.94;103150.06;5051251;28;49907;-63
2022/01/20 10:44:21;;;;;;;;;25.75;22.00;;;;;7.84;67.39;103131.66;5019207;28;50899;-66
2022/01/20 10:46:50;;;;;;;;;19.25;19.00;;;;;7.81;68.12;103118.34;5048626;28;49913;-71
2022/01/20 10:49:17;;;;;;;;;27.75;24.50;;;;;7.93;67.44;103148.00;5050970;28;49805;-68
2022/01/20 10:51:43;;;;;;;;;25.25;23.25;;;;;7.40;67.42;103043.19;5051731;28;49693;-67
2022/01/20 10:54:13;;;;;;;;;22.50;21.50;;;;;8.01;68.13;103146.84;5050825;28;49884;-65
2022/01/20 10:56:53;;;;;;;;;20.50;19.00;;;;;7.93;67.41;103129.69;5050328;28;49906;-64
2022/01/20 10:59:20;;;;;;;;;22.50;20.75;;;;;8.01;68.44;103133.75;5050582;28;49970;-66
2022/01/20 11:02:00;;;;;;;;;29.50;24.75;;;;;7.99;68.07;103134.44;5050807;28;49752;-66
2022/01/20 11:04:27;;;;;;;;;27.75;26.00;;;;;7.96;67.51;103127.28;5054238;28;51027;-72
2022/01/20 11:06:56;;;;;;;;;32.00;25.50;;;;;7.97;67.13;103136.03;5050041;28;49862;-66
2022/01/20 11:09:22;;;;;;;;;21.50;21.50;;;;;8.00;67.07;103142.38;5049020;28;49772;-65
2022/01/20 11:11:49;;;;;;;;;15.00;14.50;;;;;8.00;67.23;103145.00;5048726;28;49696;-67
2022/01/20 11:14:15;;;;;;;;;19.50;19.00;;;;;7.99;67.35;103137.94;5048626;28;51544;-66
2022/01/20 11:16:41;;;;;;;;;21.00;19.25;;;;;7.98;67.11;103124.75;5043833;28;49986;-62
2022/01/20 11:19:21;;;;;;;;;21.50;20.50;;;;;7.97;67.73;103107.25;5055870;28;49731;-61
2022/01/20 11:21:47;;;;;;;;;19.00;17.25;;;;;7.96;67.73;103114.19;5045575;28;50030;-71
2022/01/20 11:24:31;;;;;;;;;19.75;17.75;;;;;8.12;66.80;103131.88;5057837;28;50749;-68
2022/01/20 11:26:59;;;;;;;;;20.00;13.75;;;;;8.06;66.11;103120.06;5048536;28;49751;-66
2022/01/20 11:29:46;;;;;;;;;12.75;12.75;;;;;8.02;66.37;103132.03;5050401;28;49937;-66
2022/01/20 11:32:25;;;;;;;;;19.00;17.50;;;;;7.82;65.94;103124.53;5050756;28;49903;-68
2022/01/20 11:35:00;;;;;;;;;17.00;17.00;;;;;7.74;66.28;103096.13;5050142;28;49938;-67
2022/01/20 11:37:28;;;;;;;;;19.00;14.00;;;;;7.74;65.85;103111.81;5050389;28;49737;-65
2022/01/20 11:40:06;;;;;;;;;20.25;19.25;;;;;7.74;65.71;103121.38;5050390;28;49681;-64
2022/01/20 11:42:31;;;;;;;;;17.75;16.75;;;;;7.63;65.61;103123.25;5050168;28;49763;-65
2022/01/20 11:44:57;;;;;;;;;10.75;9.25;;;;;7.81;66.41;103127.91;5053655;28;50992;-63
2022/01/20 11:47:31;;;;;;;;;13.50;13.50;;;;;7.74;65.56;103105.69;5050054;28;49868;-72
2022/01/20 11:49:57;;;;;;;;;20.75;19.00;;;;;7.99;65.11;103135.31;5050274;28;49772;-67
2022/01/20 11:52:24;;;;;;;;;8.50;6.25;;;;;7.74;64.48;103080.44;5050617;28;49554;-66
2022/01/20 11:54:50;;;;;;;;;14.00;12.00;;;;;7.80;65.19;103085.16;5050169;28;51023;-64
2022/01/20 11:57:20;;;;;;;;;13.75;13.00;;;;;8.13;64.73;103132.78;5049960;28;49979;-70
2022/01/20 11:59:46;;;;;;;;;5.75;5.25;;;;;8.13;64.31;103128.44;5050163;28;49918;-70
2022/01/20 12:02:24;;;;;;;;;10.50;10.50;;;;;8.18;64.30;103139.22;5050356;28;49843;-67
2022/01/20 12:04:51;;;;;;;;;13.75;8.25;;;;;8.22;62.73;103139.53;5049973;28;49914;-68
2022/01/20 12:07:43;;;;;;;;;13.50;8.00;;;;;8.12;63.16;103124.03;5050071;28;49854;-65
2022/01/20 12:10:11;;;;;;;;;5.25;4.00;;;;;8.16;62.39;103117.28;5047776;28;49951;-71
2022/01/20 16:56:56;;;;;;;;;6.00;6.00;;;;;4.85;66.54;103194.88;5099139;27;1490041;-62
2022/01/20 16:59:21;;;;;;;;;5.75;4.00;;;;;5.21;66.41;103230.84;5127882;27;49746;-69
2022/01/20 17:01:47;;;;;;;;;6.75;5.75;;;;;5.23;65.74;103204.94;5129463;27;49849;-64
2022/01/20 17:04:12;;;;;;;;;12.00;11.75;;;;;5.41;64.59;103229.88;5129103;27;51005;-64
2022/01/20 17:06:37;;;;;;;;;12.00;11.25;;;;;5.68;64.67;103260.72;5129231;27;49634;-63
2022/01/20 17:09:05;;;;;;;;;10.25;8.25;;;;;5.85;64.46;103264.69;5129092;27;49784;-61
2022/01/20 17:11:30;;;;;;;;;19.50;12.75;;;;;5.86;64.28;103244.72;5127385;27;49953;-62
2022/01/20 17:13:56;;;;;;;;;16.75;10.00;;;;;5.81;63.90;103226.13;5130646;27;50894;-62
2022/01/20 17:16:21;;;;;;;;;3.75;1.00;;;;;6.08;63.03;103268.22;5149411;27;49789;-66
2022/01/20 17:18:47;;;;;;;;;2.75;2.75;;;;;5.94;62.45;103251.50;5157246;27;49778;-62
2022/01/20 17:21:12;;;;;;;;;5.00;5.00;;;;;5.99;62.63;103264.13;5150005;27;49812;-64
2022/01/20 17:23:37;;;;;;;;;7.00;7.00;;;;;5.91;62.59;103241.75;5146780;27;49874;-63
2022/01/20 17:26:03;;;;;;;;;8.00;8.00;;;;;6.14;62.67;103286.97;5148533;27;49972;-61
2022/01/20 17:28:29;;;;;;;;;8.50;7.50;;;;;6.08;62.74;103276.06;5148547;27;49869;-62
2022/01/20 17:30:55;;;;;;;;;11.50;8.25;;;;;6.13;62.34;103279.94;5149037;27;49984;-63
2022/01/20 17:33:21;;;;;;;;;8.00;6.50;;;;;6.02;62.39;103250.41;5148739;27;49955;-70
2022/01/20 17:35:48;;;;;;;;;7.50;5.00;;;;;6.13;62.61;103269.50;5148670;27;49714;-67
2022/01/20 17:38:13;;;;;;;;;9.75;8.50;;;;;6.02;62.46;103250.41;5148947;27;50319;-63
2022/01/20 17:40:42;;;;;;;;;4.75;4.75;;;;;6.18;62.00;103279.53;5148907;27;49920;-68
2022/01/20 17:43:08;;;;;;;;;6.00;6.00;;;;;5.99;61.78;103260.63;5147961;27;50813;-62
2022/01/20 17:45:34;;;;;;;;;6.00;5.00;;;;;6.24;62.64;103300.84;5148313;27;49868;-63
2022/01/20 17:48:00;;;;;;;;;4.75;4.75;;;;;6.27;62.61;103300.19;5148574;27;49602;-67
2022/01/20 17:50:25;;;;;;;;;5.75;5.75;;;;;6.10;61.52;103272.78;5148626;27;49847;-63
2022/01/20 17:52:51;;;;;;;;;6.75;6.75;;;;;6.22;62.30;103292.00;5150937;27;49853;-67
2022/01/20 17:55:18;;;;;;;;;10.00;7.50;;;;;5.78;61.79;103206.72;5148068;27;49816;-73
2022/01/20 17:57:44;;;;;;;;;7.25;6.75;;;;;5.95;61.04;103233.38;5148196;27;49914;-71
2022/01/20 18:00:12;;;;;;;;;7.00;5.00;;;;;6.33;61.77;103300.66;5148519;27;49658;-72
2022/01/20 18:02:40;;;;;;;;;7.00;5.00;;;;;6.09;61.30;103249.22;5148217;27;50938;-70
2022/01/20 18:05:06;;;;;;;;;9.75;9.75;;;;;5.92;62.04;103232.22;5148268;27;49865;-71
2022/01/20 18:07:32;;;;;;;;;8.00;8.00;;;;;6.04;61.62;103256.66;5138923;27;49749;-65
2022/01/20 18:09:57;;;;;;;;;7.25;6.50;;;;;6.24;61.28;103300.84;5115292;27;50094;-70
2022/01/20 18:12:22;;;;;;;;;5.25;3.75;;;;;5.98;61.13;103258.75;5114142;27;49695;-70
2022/01/20 18:14:48;;;;;;;;;6.50;6.25;;;;;6.25;61.87;103302.66;5114053;27;49691;-67
2022/01/20 18:17:13;;;;;;;;;8.00;7.50;;;;;5.81;62.13;103228.75;5114050;27;49971;-66
2022/01/20 18:19:39;;;;;;;;;10.25;8.50;;;;;6.04;62.29;103272.31;5114404;27;49578;-67
2022/01/20 18:22:04;;;;;;;;;10.75;9.50;;;;;5.95;61.86;103256.84;5114035;27;50252;-64
2022/01/20 18:24:30;;;;;;;;;7.25;6.75;;;;;6.22;62.04;103309.34;5112932;27;49777;-61
2022/01/20 18:26:55;;;;;;;;;4.50;4.50;;;;;5.94;61.93;103274.97;5116370;27;49639;-61
2022/01/20 18:29:21;;;;;;;;;6.50;5.75;;;;;6.08;61.97;103297.84;5114255;27;49948;-62
2022/01/20 18:31:48;;;;;;;;;17.75;14.75;;;;;6.02;61.93;103289.53;5113748;27;50095;-65
2022/01/20 18:34:14;;;;;;;;;9.75;9.75;;;;;6.05;62.19;103291.47;5114073;27;49933;-63
2022/01/20 18:36:40;;;;;;;;;18.50;17.00;;;;;6.19;62.42;103316.97;5113873;27;49866;-60
2022/01/20 18:39:06;;;;;;;;;21.75;21.25;;;;;5.69;62.68;103246.00;5111092;27;50001;-67
2022/01/20 18:41:31;;;;;;;;;26.25;24.50;;;;;5.89;61.55;103268.47;5114985;27;50833;-66
2022/01/20 18:43:57;;;;;;;;;16.25;14.50;;;;;5.92;62.39;103279.16;5113664;27;49751;-73
2022/01/20 18:46:23;;;;;;;;;13.00;10.00;;;;;6.00;62.20;103302.44;5112233;27;49800;-67
2022/01/20 18:48:49;;;;;;;;;12.00;9.75;;;;;5.90;62.34;103286.88;5114026;27;49831;-78
2022/01/20 18:51:14;;;;;;;;;13.50;12.75;;;;;5.99;62.29;103315.38;5113552;27;50822;-61
2022/01/20 18:53:41;;;;;;;;;9.75;8.00;;;;;5.91;62.30;103306.03;5113572;27;49673;-61
2022/01/20 18:56:10;;;;;;;;;12.50;9.25;;;;;5.63;62.19;103280.31;5113219;27;49999;-61
2022/01/20 18:58:37;;;;;;;;;9.50;8.00;;;;;5.49;62.82;103240.88;5113700;27;50214;-60
2022/01/20 19:01:03;;;;;;;;;10.75;8.50;;;;;6.07;62.70;103349.84;5113905;27;50797;-60
2022/01/20 19:03:28;;;;;;;;;11.00;10.00;;;;;5.99;62.85;103333.63;5115102;27;50045;-61
2022/01/20 19:05:53;;;;;;;;;9.00;9.00;;;;;5.50;62.59;103259.25;5113283;27;49790;-61
2022/01/20 19:08:19;;;;;;;;;10.00;8.25;;;;;6.05;62.58;103365.38;5113694;27;49820;-61
2022/01/20 19:10:44;;;;;;;;;13.00;8.50;;;;;6.04;62.65;103363.56;5113313;27;50690;-61
2022/01/20 19:13:09;;;;;;;;;3.00;3.00;;;;;5.93;62.58;103344.47;5113075;27;49698;-60
2022/01/20 19:15:35;;;;;;;;;11.50;10.00;;;;;5.99;62.60;103352.78;5113295;27;49642;-62
2022/01/20 19:18:00;;;;;;;;;13.00;11.00;;;;;5.84;62.45;103340.16;5115869;27;49983;-69
2022/01/20 19:20:26;;;;;;;;;35.00;33.50;;;;;5.50;62.86;103269.69;5114728;27;51360;-62
2022/01/20 19:22:52;;;;;;;;;16.25;14.00;;;;;5.97;62.28;103351.72;5118720;27;49709;-61
2022/01/20 19:25:18;;;;;;;;;18.50;16.75;;;;;5.80;62.38;103322.47;5118054;27;49894;-61
2022/01/20 19:27:45;;;;;;;;;20.25;17.25;;;;;5.98;62.64;103363.06;5116619;27;49913;-62
2022/01/20 19:30:11;;;;;;;;;18.50;17.50;;;;;5.85;62.81;103341.97;5133452;27;50953;-61
2022/01/20 19:32:37;;;;;;;;;17.50;16.25;;;;;5.80;62.45;103327.69;5133972;27;49626;-61
2022/01/20 19:35:03;;;;;;;;;13.50;13.50;;;;;6.01;62.73;103378.97;5132770;27;49543;-61
2022/01/20 19:37:29;;;;;;;;;6.00;6.00;;;;;5.83;63.07;103340.94;5132900;27;49940;-62
2022/01/20 19:39:55;;;;;;;;;16.75;15.25;;;;;5.96;63.16;103354.22;5133922;27;49919;-62
2022/01/20 19:42:20;;;;;;;;;10.00;9.75;;;;;6.03;62.63;103370.47;5137796;27;49712;-61
2022/01/20 19:44:47;;;;;;;;;9.50;8.50;;;;;5.97;62.62;103343.91;5127678;27;49692;-61
2022/01/20 19:47:14;;;;;;;;;10.75;9.50;;;;;6.11;62.53;103372.81;5113109;27;49683;-63
2022/01/20 19:49:40;;;;;;;;;10.75;10.00;;;;;6.06;62.58;103367.19;5115644;27;50676;-64
2022/01/20 19:52:07;;;;;;;;;9.00;9.00;;;;;6.06;62.61;103364.59;5130184;27;49499;-66
2022/01/20 19:54:33;;;;;;;;;9.00;8.75;;;;;6.01;62.51;103348.59;5129478;27;49543;-69
2022/01/20 19:56:59;;;;;;;;;12.50;12.50;;;;;5.99;62.53;103341.44;5126159;27;49471;-66
2022/01/20 19:59:25;;;;;;;;;13.25;13.00;;;;;5.98;62.29;103334.38;5119177;27;51440;-66
2022/01/20 20:01:53;;;;;;;;;10.25;10.00;;;;;6.14;62.24;103367.81;5129609;27;49672;-65
2022/01/20 20:04:26;;;;;;;;;10.75;10.00;;;;;6.10;62.37;103360.56;5143892;27;49797;-64
2022/01/20 20:07:10;;;;;;;;;8.50;6.50;;;;;6.08;62.36;103372.53;5131065;27;49251;-64
2022/01/20 20:09:39;;;;;;;;;9.75;8.25;;;;;5.99;62.55;103355.38;5115139;27;49802;-63
2022/01/20 20:12:11;;;;;;;;;10.25;10.25;;;;;6.09;62.53;103374.38;5124221;27;49614;-63
2022/01/20 20:14:37;;;;;;;;;6.00;6.00;;;;;5.89;62.21;103352.78;5127235;27;49783;-63
2022/01/20 20:17:02;;;;;;;;;9.50;9.00;;;;;5.86;62.42;103339.50;5126789;27;49544;-62
2022/01/20 20:19:28;;;;;;;;;8.50;6.75;;;;;5.73;62.20;103328.88;5131146;27;49848;-63
2022/01/20 20:21:54;;;;;;;;;9.75;9.50;;;;;6.01;62.80;103392.03;5111319;27;49733;-65
2022/01/20 20:24:25;;;;;;;;;10.50;10.50;;;;;5.72;62.80;103322.75;5112004;27;50093;-64
2022/01/20 20:26:52;;;;;;;;;22.00;18.50;;;;;5.96;62.77;103370.78;5112112;27;49962;-64
2022/01/20 20:29:18;;;;;;;;;19.75;17.00;;;;;5.83;62.62;103348.78;5111432;27;49921;-63
2022/01/20 20:31:44;;;;;;;;;17.25;11.75;;;;;5.96;62.41;103372.47;5111933;27;49928;-64
2022/01/20 20:34:10;;;;;;;;;17.75;17.75;;;;;6.05;62.73;103383.63;5110625;27;49944;-67
2022/01/20 20:36:37;;;;;;;;;12.50;11.00;;;;;5.88;62.67;103361.38;5111639;27;49987;-65
2022/01/20 20:39:13;;;;;;;;;15.75;15.75;;;;;6.06;62.56;103385.47;5099856;27;50672;-64
2022/01/20 20:41:40;;;;;;;;;9.50;9.50;;;;;5.86;63.03;103364.66;5121961;27;49674;-64
2022/01/20 20:44:08;;;;;;;;;16.75;16.50;;;;;5.94;62.70;103374.03;5114337;27;49612;-64
2022/01/20 20:46:34;;;;;;;;;11.00;10.75;;;;;6.06;63.16;103393.28;5117305;27;49740;-65
2022/01/20 20:49:00;;;;;;;;;16.50;10.75;;;;;5.95;62.75;103370.66;5110414;27;51375;-64
2022/01/20 20:51:25;;;;;;;;;8.50;8.50;;;;;5.68;62.84;103325.88;5113008;27;49887;-64
2022/01/20 20:53:51;;;;;;;;;13.75;11.25;;;;;6.01;63.11;103399.84;5115620;27;50187;-74
2022/01/20 20:56:17;;;;;;;;;17.00;14.25;;;;;5.64;62.98;103341.16;5121963;27;50193;-68
2022/01/20 20:58:42;;;;;;;;;18.75;18.25;;;;;5.78;63.11;103365.72;5115951;27;49990;-64
2022/01/20 21:01:08;;;;;;;;;22.50;17.25;;;;;5.67;63.20;103363.16;5115259;27;49785;-64
2022/01/20 21:03:33;;;;;;;;;15.25;12.75;;;;;5.66;63.14;103363.94;5115815;27;49931;-65
2022/01/20 21:05:59;;;;;;;;;16.25;9.75;;;;;5.79;63.15;103391.94;5114957;27;50059;-66
2022/01/20 21:08:25;;;;;;;;;9.50;8.25;;;;;5.63;63.65;103371.50;5118439;27;49969;-67
2022/01/20 21:10:54;;;;;;;;;6.00;6.00;;;;;5.68;63.04;103369.28;5111989;27;49864;-64
2022/01/20 21:13:20;;;;;;;;;4.50;4.50;;;;;5.81;63.59;103400.78;5096380;27;49852;-74
2022/01/20 21:15:46;;;;;;;;;26.00;23.25;;;;;5.78;63.24;103400.50;5133625;27;50238;-74
2022/01/20 21:18:11;;;;;;;;;21.00;17.50;;;;;5.74;63.46;103401.06;5096043;27;50247;-74
2022/01/20 21:20:39;;;;;;;;;28.00;23.75;;;;;5.74;63.74;103408.88;5131428;27;49781;-74
2022/01/20 21:23:05;;;;;;;;;25.75;24.00;;;;;5.73;64.01;103407.97;5137410;27;49778;-74
2022/01/20 21:25:31;;;;;;;;;10.50;9.00;;;;;5.73;64.33;103410.56;5096660;27;49858;-74
2022/01/20 21:27:56;;;;;;;;;10.00;9.00;;;;;5.65;63.88;103398.59;5116124;27;49758;-74
2022/01/20 21:30:22;;;;;;;;;9.00;6.25;;;;;5.46;64.00;103387.44;5114441;27;49848;-75
2022/01/20 21:32:47;;;;;;;;;6.00;6.00;;;;;5.61;64.39;103417.38;5113924;27;49767;-75
2022/01/20 21:35:13;;;;;;;;;15.50;13.25;;;;;5.53;64.44;103421.03;5117360;27;49890;-75
2022/01/20 21:37:40;;;;;;;;;10.25;5.25;;;;;5.35;64.64;103375.22;5125224;27;49669;-64
2022/01/20 21:40:06;;;;;;;;;7.50;5.75;;;;;5.67;64.16;103438.72;5130672;27;49962;-64
2022/01/20 21:42:32;;;;;;;;;10.75;9.50;;;;;5.11;64.28;103337.59;5132359;27;50044;-65
2022/01/20 21:44:58;;;;;;;;;6.00;6.00;;;;;5.63;64.85;103433.16;5136521;27;49839;-65
2022/01/20 21:47:23;;;;;;;;;11.50;9.25;;;;;5.43;64.16;103403.75;5124010;27;50413;-64
2022/01/20 21:49:49;;;;;;;;;75.50;58.75;;;;;5.46;64.30;103406.59;5123954;27;49772;-65
2022/01/20 21:52:14;;;;;;;;;13.50;13.00;;;;;5.66;64.43;103449.03;5122769;27;49955;-65
2022/01/20 21:54:42;;;;;;;;;12.50;11.75;;;;;5.60;64.71;103441.63;5121226;27;49918;-65
2022/01/20 21:57:10;;;;;;;;;12.75;11.00;;;;;5.51;64.41;103427.84;5104855;27;49878;-65
2022/01/20 21:59:36;;;;;;;;;12.50;8.00;;;;;5.53;64.04;103434.06;5123587;27;49813;-65
2022/01/20 22:02:03;;;;;;;;;14.50;12.50;;;;;5.53;64.60;103447.09;5121010;27;49772;-65
2022/01/20 22:04:28;;;;;;;;;13.00;13.00;;;;;5.36;64.70;103423.94;5124045;27;49761;-65
2022/01/20 22:06:54;;;;;;;;;20.00;19.00;;;;;5.54;65.29;103445.41;5108206;27;51946;-65
2022/01/20 22:09:19;;;;;;;;;15.50;12.00;;;;;5.20;64.90;103389.56;5124221;27;49812;-64
2022/01/20 22:11:45;;;;;;;;;10.50;8.00;;;;;5.49;65.13;103429.38;5121204;27;49932;-65
2022/01/20 22:14:14;;;;;;;;;9.75;9.25;;;;;5.01;65.29;103353.22;5114445;27;49921;-65
2022/01/20 22:16:40;;;;;;;;;12.25;9.00;;;;;5.49;65.55;103447.63;5102156;27;51433;-65
2022/01/20 22:19:05;;;;;;;;;10.50;10.50;;;;;5.18;64.98;103394.63;5133453;27;49730;-65
2022/01/20 22:21:31;;;;;;;;;15.00;9.75;;;;;4.96;65.52;103371.09;5134033;27;49950;-64
2022/01/20 22:23:56;;;;;;;;;9.25;9.00;;;;;5.13;65.77;103399.47;5134221;27;49864;-64
2022/01/20 22:26:22;;;;;;;;;8.75;8.50;;;;;4.99;65.35;103399.97;5133104;27;50236;-65
2022/01/20 22:28:48;;;;;;;;;12.50;9.00;;;;;4.97;65.24;103398.03;5134059;27;49665;-65
2022/01/20 22:31:14;;;;;;;;;11.75;6.50;;;;;5.36;65.75;103466.50;5133914;27;49998;-64
2022/01/20 22:33:39;;;;;;;;;8.50;5.25;;;;;5.24;65.60;103446.34;5134253;27;49923;-65
2022/01/20 22:36:06;;;;;;;;;8.00;8.00;;;;;5.41;65.28;103472.13;5133499;27;50413;-65
2022/01/20 22:38:31;;;;;;;;;12.50;9.25;;;;;5.32;65.70;103461.84;5133751;27;49739;-65
2022/01/20 22:40:57;;;;;;;;;27.75;21.50;;;;;5.39;66.12;103460.66;5133800;27;49840;-65
2022/01/20 22:43:26;;;;;;;;;19.75;16.25;;;;;4.91;65.92;103380.19;5117729;27;49833;-65
2022/01/20 22:45:56;;;;;;;;;13.50;10.00;;;;;5.25;65.89;103437.75;5113637;27;50876;-65
2022/01/20 22:48:26;;;;;;;;;9.00;9.00;;;;;5.11;65.48;103426.13;5113790;27;49889;-65
2022/01/20 22:50:52;;;;;;;;;13.25;12.25;;;;;5.29;65.65;103448.53;5113758;27;49849;-65
2022/01/20 22:53:18;;;;;;;;;10.50;10.50;;;;;5.32;65.65;103454.03;5113842;27;49773;-65
2022/01/20 22:55:43;;;;;;;;;15.00;12.00;;;;;5.41;65.95;103475.66;5113065;27;49880;-65
2022/01/20 22:58:08;;;;;;;;;12.50;9.75;;;;;5.22;65.84;103432.28;5113410;27;49966;-65
2022/01/20 23:00:40;;;;;;;;;10.00;9.25;;;;;5.11;65.73;103440.06;5113510;27;49623;-65
2022/01/20 23:03:06;;;;;;;;;8.75;8.75;;;;;5.50;65.31;103488.53;5113785;27;49714;-65
2022/01/20 23:05:31;;;;;;;;;10.25;9.25;;;;;5.22;65.39;103447.91;5113129;27;50790;-65
2022/01/20 23:07:57;;;;;;;;;5.00;5.00;;;;;5.38;65.32;103470.16;5113410;27;49752;-65
2022/01/20 23:10:26;;;;;;;;;10.00;9.00;;;;;5.53;65.34;103490.50;5113336;27;50372;-65
2022/01/20 23:12:53;;;;;;;;;10.25;8.50;;;;;5.45;65.55;103466.38;5113548;27;49952;-65
2022/01/20 23:15:28;;;;;;;;;11.50;9.25;;;;;5.23;65.56;103429.81;5112783;27;51677;-65
2022/01/20 23:20:49;;;;;;;;;12.25;9.00;;;;;5.25;65.19;103446.47;5116954;27;49799;-65
2022/01/20 23:23:47;;;;;;;;;1.00;1.00;;;;;5.32;65.51;103474.88;5133420;27;49754;-65
2022/01/20 23:26:16;;;;;;;;;8.25;4.50;;;;;5.38;65.25;103487.47;5132598;27;50840;-65
2022/01/20 23:28:46;;;;;;;;;6.50;4.00;;;;;5.46;65.13;103494.25;5132819;27;49801;-65
2022/01/20 23:31:15;;;;;;;;;16.25;7.25;;;;;5.28;65.35;103462.34;5133006;27;49855;-65
2022/01/20 23:33:42;;;;;;;;;10.75;6.50;;;;;5.42;65.19;103500.00;5132981;27;49954;-65
2022/01/20 23:36:08;;;;;;;;;8.00;6.00;;;;;5.29;65.60;103482.41;5132771;27;50060;-65
2022/01/20 23:38:34;;;;;;;;;10.00;9.25;;;;;5.28;65.92;103496.19;5132688;27;49940;-65
2022/01/20 23:41:12;;;;;;;;;8.00;6.00;;;;;5.18;65.55;103460.66;5132713;27;49596;-65